Terminal Aerodrome Forecast
Issued by NWS Brownsville, TX

Home | Current Version | Previous Version | Text Only | Print | Product List | Glossary On
Versions: 1 2 3 4 5 6 7 8 9 10 11 12 13 14 15 16 17 18 19 20
274
FTUS44 KBRO 082338
TAFMFE
TAF
KMFE 082338Z 0900/0924 34019G29KT P6SM -RA OVC012
     FM090600 33016G25KT P6SM -RA OVC012
     FM091200 34015KT P6SM -DZ OVC012
     FM092000 33010KT P6SM OVC015=

USA.gov is the U.S. government's official web portal to all federal, state and local government web resources and services.